Pagina principale
METAR-TAF:

METAR-TAF

Aeroporti :

Aeroporto di Antananarivo-Ivato

Antananarivo, Madagascar

latitudine: 18-48S, longitudine: 047-29E, altezza: 1279 m

Osservazione

Il bollettino è stato emesso 37 minuti fa, alle 09:00 UTC
Vento 13 kt da sud-est
Temperature 18°C
Umidità 59%
Pressione 1024 hPa
Visibilità 10 km o più
Nubi sparse ad un'altezza di 1700 ft
Nubi sparse ad un'altezza di 2000 ft

METAR: FMMI 070900Z 13013KT 9999 SCT017 SCT020 18/10 Q1024 NOSIG

Ora: 12:37 (09:37 UTC)

Previsione

Il bollettino è stato emesso 4 ore e 37 minuti fa, alle 05:00 UTC
Previsione valida dal 07 alle 06 UTC al 08 alle 12 UTC
Vento 8 kt da sud-est
Visibilità 10 km o più
Poco nuvoloso ad un'altezza di 1000 ft
Nuvoloso ad un'altezza di 2000 ft
Probabilità 40% :
Temporaneamente
dal 07 alle 07 UTC al 07 alle 18 UTC
Vento 18 kt da est/sud-est con raffiche fino a 28 kt

TAF: FMMI 070500Z 0706/0812 14008KT 9999 FEW010 BKN020 PROB40 TEMPO 0707/0718 12018G28KT

Osservazioni e previsioni meteorologiche di più di 4000 aeroporti (messaggi METAR e TAF).

Le stazioni disponibili sono rappresentate dai dischi gialli e rossi sulla carta.

Puntare il mouse per vedere il nome della stazione.

Clicca sopra per visualizzare le osservazioni e previsioni meteorologiche.

Per cambiare la mappa : fare clic sui pulsanti verdi con una croce nera per ingrandire, il pulsante verde con un trattino per diminuire, o sulla freccia verde per le mappe adiacenti.


METAR-TAF: